Time;durP1;ratioP1;P1;durP2;ratioP2;P2;SDS_P1;SDS_P2;PMS_P1;PMS_P2;Temp;Humidity;BMP_temperature;BMP_pressure;BME280_temperature;BME280_humidity;BME280_pressure;Samples;Min_cycle;Max_cycle;Signal;HPM_P1;HPM_P2
2023/06/17 00:02:02;;;;;;;8.10;7.20;;;14.10;99.90;;;;;;5123593;27;20079;-65
2023/06/17 00:04:28;;;;;;;9.77;7.68;;;14.10;99.90;;;;;;5125856;27;20041;-64
2023/06/17 00:06:54;;;;;;;11.18;7.18;;;14.10;99.90;;;;;;5119397;27;20042;-63
2023/06/17 00:09:20;;;;;;;9.13;6.63;;;14.00;99.90;;;;;;5125462;27;20049;-65
2023/06/17 00:11:46;;;;;;;11.18;7.60;;;14.00;99.90;;;;;;5125341;27;20508;-62
2023/06/17 00:14:12;;;;;;;9.55;7.82;;;13.90;99.90;;;;;;5135686;27;20042;-64
2023/06/17 00:16:43;;;;;;;9.57;7.25;;;13.90;99.90;;;;;;5133163;27;20126;-63
2023/06/17 00:19:15;;;;;;;8.63;7.72;;;13.80;99.90;;;;;;5117525;27;20043;-65
2023/06/17 00:21:44;;;;;;;14.45;8.00;;;13.70;99.90;;;;;;5126353;27;20038;-64
2023/06/17 00:24:12;;;;;;;11.38;7.65;;;13.70;99.90;;;;;;5135428;27;20064;-63
2023/06/17 00:26:38;;;;;;;9.60;8.38;;;13.60;99.90;;;;;;5125424;27;20077;-65
2023/06/17 00:29:05;;;;;;;13.20;9.00;;;13.50;99.90;;;;;;5134833;27;20027;-64
2023/06/17 00:31:32;;;;;;;10.60;9.52;;;13.50;99.90;;;;;;5121191;27;21663;-64
2023/06/17 00:33:57;;;;;;;11.77;9.63;;;13.50;99.90;;;;;;5124076;27;20035;-64
2023/06/17 00:36:23;;;;;;;12.40;10.35;;;13.50;99.90;;;;;;5143661;27;20516;-64
2023/06/17 00:38:50;;;;;;;11.02;9.93;;;13.50;99.90;;;;;;5149405;27;20049;-63
2023/06/17 00:41:15;;;;;;;9.55;8.52;;;13.50;99.90;;;;;;5148654;27;20031;-63
2023/06/17 00:43:41;;;;;;;13.63;9.82;;;13.50;99.90;;;;;;5118305;27;20405;-63
2023/06/17 00:46:08;;;;;;;10.40;8.90;;;13.40;99.90;;;;;;5128821;27;20049;-64
2023/06/17 00:48:34;;;;;;;9.00;8.10;;;13.40;99.90;;;;;;5135269;27;20086;-65
2023/06/17 00:51:01;;;;;;;12.15;9.20;;;13.40;99.90;;;;;;5105482;28;20047;-63
2023/06/17 00:53:31;;;;;;;10.93;8.95;;;13.30;99.90;;;;;;5110002;28;20039;-63
2023/06/17 00:55:58;;;;;;;10.43;9.38;;;13.30;99.90;;;;;;5110160;28;20035;-64
2023/06/17 00:58:27;;;;;;;14.13;8.65;;;13.30;99.90;;;;;;5107610;28;20040;-63
2023/06/17 01:00:53;;;;;;;10.50;9.50;;;13.20;99.90;;;;;;5108227;28;20058;-63
2023/06/17 01:03:18;;;;;;;10.77;9.55;;;13.20;99.90;;;;;;5109195;28;20046;-64
2023/06/17 01:05:49;;;;;;;12.52;9.52;;;13.20;99.90;;;;;;5108522;28;20070;-64
2023/06/17 01:08:40;;;;;;;11.30;9.35;;;13.10;99.90;;;;;;5107464;28;20113;-64
2023/06/17 01:11:12;;;;;;;13.60;9.38;;;13.10;99.90;;;;;;5089477;28;20071;-64
2023/06/17 01:13:42;;;;;;;13.02;9.43;;;13.10;99.90;;;;;;5108649;28;20046;-64
2023/06/17 01:16:08;;;;;;;11.02;9.88;;;13.10;99.90;;;;;;5109031;28;20067;-65
2023/06/17 01:18:36;;;;;;;12.43;10.57;;;13.10;99.90;;;;;;5109499;28;20051;-63
2023/06/17 01:21:03;;;;;;;14.35;11.05;;;13.10;99.90;;;;;;5102305;28;20032;-64
2023/06/17 01:23:34;;;;;;;12.05;10.82;;;13.10;99.90;;;;;;5090155;28;20122;-63
2023/06/17 01:26:02;;;;;;;13.20;11.88;;;13.10;99.90;;;;;;5107169;28;20052;-65
2023/06/17 01:28:29;;;;;;;12.90;11.30;;;13.10;99.90;;;;;;5108716;28;20177;-63
2023/06/17 01:30:56;;;;;;;14.93;11.95;;;13.10;99.90;;;;;;5109242;28;20039;-64
2023/06/17 01:33:23;;;;;;;13.55;11.32;;;13.10;99.90;;;;;;5106115;28;20044;-65
2023/06/17 01:36:22;;;;;;;12.50;10.70;;;13.10;99.90;;;;;;5107455;28;20148;-65
2023/06/17 01:38:56;;;;;;;13.38;10.82;;;13.10;99.90;;;;;;5106531;28;20127;-64
2023/06/17 01:41:26;;;;;;;13.13;11.75;;;13.10;99.90;;;;;;5107516;28;20044;-64
2023/06/17 01:43:56;;;;;;;12.55;11.25;;;13.10;99.90;;;;;;5105511;28;20436;-63
2023/06/17 01:46:24;;;;;;;11.70;10.50;;;13.00;99.90;;;;;;5108085;28;20085;-63
2023/06/17 01:48:53;;;;;;;10.63;9.52;;;13.00;99.90;;;;;;5108667;28;20050;-63
2023/06/17 01:51:19;;;;;;;11.38;10.27;;;12.90;99.90;;;;;;5107846;28;20055;-64
2023/06/17 01:53:46;;;;;;;11.73;10.48;;;12.90;99.90;;;;;;5108941;28;20073;-64
2023/06/17 01:56:11;;;;;;;12.55;11.35;;;12.90;99.90;;;;;;5107065;28;20134;-65
2023/06/17 01:58:38;;;;;;;12.88;11.57;;;12.90;99.90;;;;;;5108455;28;20118;-64
2023/06/17 02:01:04;;;;;;;12.93;11.63;;;12.80;99.90;;;;;;5107730;28;20039;-65
2023/06/17 02:03:30;;;;;;;11.90;10.70;;;12.80;99.90;;;;;;5103252;28;20042;-63
2023/06/17 02:05:56;;;;;;;12.52;11.32;;;12.80;99.90;;;;;;5104908;28;20460;-63
2023/06/17 02:08:22;;;;;;;15.90;11.07;;;12.70;99.90;;;;;;5106941;28;20071;-64
2023/06/17 02:10:48;;;;;;;13.48;12.18;;;12.70;99.90;;;;;;5109832;28;20028;-62
2023/06/17 02:13:14;;;;;;;14.18;11.88;;;12.70;99.90;;;;;;5108421;28;20031;-65
2023/06/17 02:15:42;;;;;;;13.20;11.80;;;12.60;99.90;;;;;;5106504;28;20086;-63
2023/06/17 02:18:08;;;;;;;12.80;11.45;;;12.60;99.90;;;;;;5107258;28;20047;-63
2023/06/17 02:20:34;;;;;;;14.32;12.40;;;12.60;99.90;;;;;;5108059;28;20085;-63
2023/06/17 02:23:00;;;;;;;15.75;12.60;;;12.60;99.90;;;;;;5107648;28;20114;-64
2023/06/17 02:25:26;;;;;;;14.55;12.50;;;12.60;99.90;;;;;;5108585;28;20119;-64
2023/06/17 02:27:52;;;;;;;12.20;11.02;;;12.60;99.90;;;;;;5107606;28;20070;-65
2023/06/17 02:30:17;;;;;;;12.27;10.85;;;12.60;99.90;;;;;;5109980;28;20032;-64
2023/06/17 02:32:43;;;;;;;12.65;11.35;;;12.60;99.90;;;;;;5106858;28;20043;-65
2023/06/17 02:35:10;;;;;;;12.70;10.80;;;12.60;99.90;;;;;;5106982;28;20039;-64
2023/06/17 02:37:37;;;;;;;12.20;10.90;;;12.60;99.90;;;;;;5108974;28;20088;-65
2023/06/17 02:40:07;;;;;;;14.10;11.25;;;12.60;99.90;;;;;;5106071;28;20043;-63
2023/06/17 02:42:33;;;;;;;15.80;12.95;;;12.60;99.90;;;;;;5108307;28;20057;-64
2023/06/17 02:44:58;;;;;;;17.33;14.18;;;12.50;99.90;;;;;;5107460;28;20035;-65
2023/06/17 02:47:24;;;;;;;15.30;12.50;;;12.50;99.90;;;;;;5107448;28;20035;-63
2023/06/17 02:49:50;;;;;;;14.32;12.07;;;12.50;99.90;;;;;;5108087;28;20754;-63
2023/06/17 02:52:15;;;;;;;13.23;10.27;;;12.40;99.90;;;;;;5107157;28;20560;-64
2023/06/17 02:54:42;;;;;;;15.73;14.13;;;12.30;99.90;;;;;;5107695;28;20051;-62
2023/06/17 02:57:08;;;;;;;17.35;14.60;;;12.30;99.90;;;;;;5106854;28;20054;-62
2023/06/17 02:59:36;;;;;;;15.82;14.20;;;12.40;99.90;;;;;;5107019;28;20043;-62
2023/06/17 03:02:01;;;;;;;15.05;13.43;;;12.40;99.90;;;;;;5106089;28;20402;-63
2023/06/17 03:04:35;;;;;;;15.98;14.38;;;12.50;99.90;;;;;;5112030;28;20033;-63
2023/06/17 03:07:05;;;;;;;16.15;13.70;;;12.50;99.90;;;;;;5111426;28;20448;-63
2023/06/17 03:09:31;;;;;;;18.33;15.38;;;12.60;99.90;;;;;;5110325;28;20043;-62
2023/06/17 03:11:58;;;;;;;15.95;14.45;;;12.60;99.90;;;;;;5093266;28;20058;-64
2023/06/17 03:14:24;;;;;;;16.70;15.00;;;12.70;99.90;;;;;;5109760;28;20031;-63
2023/06/17 03:16:50;;;;;;;16.52;14.20;;;12.70;99.90;;;;;;5106003;28;20071;-63
2023/06/17 03:19:16;;;;;;;16.80;15.00;;;12.80;99.90;;;;;;5108178;28;20105;-63
2023/06/17 03:21:42;;;;;;;18.77;16.55;;;12.90;99.90;;;;;;5093668;27;20039;-62
2023/06/17 03:24:08;;;;;;;19.60;17.50;;;13.00;99.90;;;;;;5108194;28;20456;-63
2023/06/17 03:26:34;;;;;;;20.88;16.95;;;13.00;99.90;;;;;;5110132;28;20054;-64
2023/06/17 03:29:01;;;;;;;19.25;17.10;;;13.10;99.90;;;;;;5110721;28;20043;-64
2023/06/17 03:31:28;;;;;;;20.00;17.75;;;13.10;99.90;;;;;;5108342;28;20039;-63
2023/06/17 03:33:53;;;;;;;18.75;16.73;;;13.10;99.90;;;;;;5090461;28;20135;-63
2023/06/17 03:36:24;;;;;;;17.98;16.20;;;13.20;99.90;;;;;;5108449;28;20138;-64
2023/06/17 03:38:50;;;;;;;18.33;16.63;;;13.20;99.90;;;;;;5110281;28;20052;-63
2023/06/17 03:41:16;;;;;;;20.13;16.17;;;13.20;99.90;;;;;;5110932;28;20066;-64
2023/06/17 03:43:42;;;;;;;18.13;15.88;;;13.30;99.90;;;;;;5104774;28;20048;-64
2023/06/17 03:46:07;;;;;;;18.50;16.08;;;13.30;99.90;;;;;;5108946;28;20036;-64
2023/06/17 03:48:33;;;;;;;15.85;14.25;;;13.30;99.90;;;;;;5108912;28;20043;-64
2023/06/17 03:51:00;;;;;;;16.55;14.95;;;13.40;99.90;;;;;;5111335;28;20072;-63
2023/06/17 03:53:26;;;;;;;16.63;13.75;;;13.40;99.90;;;;;;5107583;28;20764;-64
2023/06/17 03:55:52;;;;;;;20.40;15.27;;;13.40;99.90;;;;;;5111198;28;20043;-63
2023/06/17 03:58:18;;;;;;;30.92;18.83;;;13.50;99.90;;;;;;5108917;28;20516;-64
2023/06/17 04:00:43;;;;;;;26.27;17.73;;;13.50;99.90;;;;;;5109288;27;20040;-63
2023/06/17 04:03:11;;;;;;;27.23;17.20;;;13.60;99.90;;;;;;5109485;28;20478;-64
2023/06/17 04:05:37;;;;;;;29.60;19.20;;;13.60;99.90;;;;;;5104061;28;20050;-64
2023/06/17 04:08:06;;;;;;;31.75;19.33;;;13.60;99.90;;;;;;5096236;28;20050;-63
2023/06/17 04:10:32;;;;;;;28.42;17.85;;;13.70;99.90;;;;;;5091547;28;20071;-63
2023/06/17 04:12:57;;;;;;;36.58;19.80;;;13.70;99.90;;;;;;5109073;28;20516;-62
2023/06/17 04:15:23;;;;;;;30.73;19.70;;;13.80;99.90;;;;;;5107868;28;20031;-63
2023/06/17 04:17:49;;;;;;;32.92;19.13;;;13.80;99.90;;;;;;5107083;28;20172;-62
2023/06/17 04:20:14;;;;;;;35.03;20.20;;;13.90;99.90;;;;;;5110322;28;20043;-62
2023/06/17 04:22:41;;;;;;;35.72;22.35;;;13.90;99.90;;;;;;5110274;28;20087;-64
2023/06/17 04:25:09;;;;;;;36.72;21.35;;;13.90;99.90;;;;;;5107666;27;20062;-63
2023/06/17 04:27:36;;;;;;;34.95;21.02;;;14.00;99.90;;;;;;5108489;28;20031;-63
2023/06/17 04:30:03;;;;;;;36.97;20.52;;;14.00;99.90;;;;;;5109622;28;20051;-63
2023/06/17 04:32:29;;;;;;;38.05;21.88;;;14.10;99.90;;;;;;5106044;28;20073;-63
2023/06/17 04:34:56;;;;;;;38.65;23.38;;;14.10;99.90;;;;;;5107909;28;20041;-62
2023/06/17 04:37:22;;;;;;;35.33;22.75;;;14.10;99.90;;;;;;5107721;28;20570;-63
2023/06/17 04:39:48;;;;;;;38.22;21.25;;;14.10;99.90;;;;;;5105956;28;20047;-64
2023/06/17 04:42:14;;;;;;;36.45;22.15;;;14.20;99.90;;;;;;5108597;28;20085;-63
2023/06/17 04:44:40;;;;;;;34.42;20.65;;;14.20;99.90;;;;;;5106397;28;20667;-63
2023/06/17 04:47:07;;;;;;;38.47;20.40;;;14.20;99.90;;;;;;5108763;28;20410;-63
2023/06/17 04:49:38;;;;;;;37.67;20.13;;;14.20;99.90;;;;;;5102784;28;20044;-63
2023/06/17 04:52:13;;;;;;;36.65;20.30;;;14.30;99.90;;;;;;5115844;27;20061;-64
2023/06/17 04:54:39;;;;;;;33.35;20.48;;;14.30;99.90;;;;;;5119958;27;20051;-63
2023/06/17 04:57:08;;;;;;;39.60;20.88;;;14.20;99.90;;;;;;5124449;27;20050;-63
2023/06/17 04:59:34;;;;;;;37.35;19.90;;;14.20;99.90;;;;;;5119667;27;20064;-62
2023/06/17 05:02:00;;;;;;;37.63;20.52;;;14.30;99.90;;;;;;5121102;27;20812;-64
2023/06/17 05:04:25;;;;;;;32.53;19.42;;;14.30;99.90;;;;;;5117856;27;20043;-65
2023/06/17 05:06:51;;;;;;;37.97;19.00;;;14.30;99.90;;;;;;5111699;27;20515;-63
2023/06/17 05:09:16;;;;;;;30.17;18.15;;;14.30;99.90;;;;;;5115285;27;20034;-62
2023/06/17 05:11:42;;;;;;;26.98;17.75;;;14.30;99.90;;;;;;5116495;27;20067;-64
2023/06/17 05:14:09;;;;;;;32.75;18.25;;;14.30;99.90;;;;;;5128836;27;20035;-62
2023/06/17 05:16:35;;;;;;;31.33;18.77;;;14.40;99.90;;;;;;5123543;27;20068;-64
2023/06/17 05:19:00;;;;;;;33.55;18.80;;;14.40;99.90;;;;;;5119908;27;20047;-64
2023/06/17 05:21:26;;;;;;;29.95;18.65;;;14.50;99.90;;;;;;5113264;27;20386;-64
2023/06/17 05:23:52;;;;;;;33.45;19.17;;;14.60;99.90;;;;;;5114391;27;20042;-65
2023/06/17 05:26:17;;;;;;;24.13;17.75;;;14.60;99.90;;;;;;5123785;27;20043;-64
2023/06/17 05:28:43;;;;;;;35.70;20.10;;;14.70;99.90;;;;;;5100182;27;20069;-64
2023/06/17 05:31:10;;;;;;;30.00;21.33;;;14.70;99.90;;;;;;5125190;27;20039;-64
2023/06/17 05:33:36;;;;;;;29.95;22.77;;;14.80;99.90;;;;;;5112508;27;20051;-63
2023/06/17 05:36:02;;;;;;;32.85;23.05;;;14.80;99.90;;;;;;5113271;27;20051;-63
2023/06/17 05:38:28;;;;;;;26.13;22.10;;;14.80;99.90;;;;;;5118379;27;20043;-62
2023/06/17 05:40:54;;;;;;;31.15;23.63;;;14.90;99.90;;;;;;5116469;27;20101;-63
2023/06/17 05:43:20;;;;;;;31.83;23.25;;;14.90;99.90;;;;;;5122153;27;20063;-64
2023/06/17 05:45:46;;;;;;;30.08;23.30;;;14.90;99.90;;;;;;5116195;27;20042;-65
2023/06/17 05:48:12;;;;;;;32.85;23.30;;;14.90;99.90;;;;;;5117557;27;20469;-63
2023/06/17 05:50:38;;;;;;;30.02;23.15;;;15.00;99.90;;;;;;5116855;27;20036;-64
2023/06/17 05:53:04;;;;;;;28.92;23.17;;;15.10;99.90;;;;;;5138800;27;20035;-63
2023/06/17 05:55:30;;;;;;;31.17;22.20;;;15.20;99.90;;;;;;5123625;27;20064;-64
2023/06/17 05:57:55;;;;;;;31.48;23.42;;;15.30;99.90;;;;;;5120984;27;20035;-63
2023/06/17 06:00:22;;;;;;;27.75;22.60;;;15.40;99.90;;;;;;5118090;27;20036;-63
2023/06/17 06:02:48;;;;;;;27.58;22.08;;;15.50;99.90;;;;;;5126463;27;20049;-66
2023/06/17 06:05:14;;;;;;;29.90;21.48;;;15.60;99.90;;;;;;5113180;27;20066;-65
2023/06/17 06:07:41;;;;;;;27.45;21.52;;;15.70;99.90;;;;;;5125287;27;20043;-64
2023/06/17 06:10:07;;;;;;;24.88;20.92;;;15.80;99.90;;;;;;5114434;27;20047;-63
2023/06/17 06:12:33;;;;;;;22.63;19.98;;;16.00;99.90;;;;;;5112211;27;20039;-65
2023/06/17 06:14:59;;;;;;;29.30;19.92;;;16.10;99.90;;;;;;5114150;27;20081;-65
2023/06/17 06:17:25;;;;;;;23.90;20.08;;;16.10;99.90;;;;;;5119270;27;20527;-63
2023/06/17 06:19:53;;;;;;;25.50;20.75;;;16.10;99.90;;;;;;5120299;27;20066;-65
2023/06/17 06:22:19;;;;;;;25.65;19.88;;;16.20;99.90;;;;;;5117822;27;20051;-64
2023/06/17 06:24:45;;;;;;;24.58;18.52;;;16.10;99.90;;;;;;5124803;27;20180;-64
2023/06/17 06:27:11;;;;;;;23.50;18.65;;;16.20;99.90;;;;;;5112529;27;21337;-63
2023/06/17 06:29:37;;;;;;;23.45;19.63;;;16.50;99.90;;;;;;5121306;27;20054;-65
2023/06/17 06:32:03;;;;;;;22.52;18.52;;;16.70;99.90;;;;;;5117311;27;20122;-65
2023/06/17 06:34:28;;;;;;;22.05;17.63;;;16.70;99.90;;;;;;5131021;27;20087;-65
2023/06/17 06:36:58;;;;;;;21.33;18.70;;;16.80;99.90;;;;;;5112761;27;20440;-64
2023/06/17 06:39:25;;;;;;;21.58;17.95;;;16.90;99.90;;;;;;5117566;27;20390;-65
2023/06/17 06:41:51;;;;;;;23.55;18.80;;;16.90;99.90;;;;;;5121501;27;20080;-66
2023/06/17 06:44:17;;;;;;;18.25;16.45;;;17.10;99.90;;;;;;5135662;27;20042;-64
2023/06/17 06:46:43;;;;;;;19.40;17.10;;;17.40;99.90;;;;;;5130984;27;20547;-64
2023/06/17 06:49:08;;;;;;;19.40;15.75;;;17.70;99.90;;;;;;5122235;27;20053;-63
2023/06/17 06:51:34;;;;;;;18.73;15.45;;;17.90;99.90;;;;;;5121795;27;20044;-63
2023/06/17 06:54:00;;;;;;;19.30;15.65;;;18.00;99.90;;;;;;5123237;27;20123;-64
2023/06/17 06:56:26;;;;;;;19.77;15.98;;;18.30;99.90;;;;;;5122647;27;20955;-65
2023/06/17 06:58:52;;;;;;;21.00;15.15;;;18.50;99.90;;;;;;5144952;27;20540;-64
2023/06/17 07:01:18;;;;;;;18.80;14.95;;;18.70;99.90;;;;;;5143621;27;20034;-62
2023/06/17 07:03:44;;;;;;;19.42;14.65;;;18.90;99.90;;;;;;5126364;27;20106;-64
2023/06/17 07:06:09;;;;;;;19.98;14.43;;;19.10;99.90;;;;;;5125534;27;20051;-64
2023/06/17 07:08:35;;;;;;;16.63;14.25;;;19.30;99.90;;;;;;5124735;27;20557;-63
2023/06/17 07:11:01;;;;;;;17.55;14.55;;;19.40;99.90;;;;;;5119408;27;20042;-63
2023/06/17 07:13:27;;;;;;;16.33;13.20;;;19.50;99.90;;;;;;5137088;27;20427;-64
2023/06/17 07:15:53;;;;;;;16.15;14.35;;;19.60;99.90;;;;;;5120982;27;20050;-64
2023/06/17 07:18:18;;;;;;;18.60;14.57;;;19.50;99.90;;;;;;5138564;27;20050;-64
2023/06/17 07:20:44;;;;;;;16.00;13.68;;;19.70;99.90;;;;;;5122032;27;20047;-64
2023/06/17 07:23:10;;;;;;;17.60;14.18;;;19.70;99.90;;;;;;5142277;27;20041;-63
2023/06/17 07:25:36;;;;;;;14.93;13.10;;;19.70;99.90;;;;;;5143629;27;20063;-62
2023/06/17 07:28:02;;;;;;;14.85;13.25;;;19.80;99.90;;;;;;5124018;27;20043;-64
2023/06/17 07:30:28;;;;;;;17.20;12.50;;;19.90;99.90;;;;;;5142397;27;20150;-63
2023/06/17 07:32:55;;;;;;;18.83;14.20;;;20.00;99.90;;;;;;5143624;27;20516;-64
2023/06/17 07:35:21;;;;;;;15.77;13.85;;;19.90;99.90;;;;;;5123982;27;20063;-63
2023/06/17 07:37:47;;;;;;;15.75;12.75;;;20.10;99.90;;;;;;5122295;27;20073;-63
2023/06/17 07:40:13;;;;;;;17.60;12.45;;;20.10;99.90;;;;;;5121727;27;20100;-65
2023/06/17 07:42:39;;;;;;;15.88;12.73;;;20.20;99.90;;;;;;5143601;27;20043;-64
2023/06/17 07:45:05;;;;;;;15.73;12.63;;;20.20;99.90;;;;;;5123646;27;20034;-64
2023/06/17 07:47:31;;;;;;;17.70;12.70;;;20.30;99.90;;;;;;5119236;27;20047;-63
2023/06/17 07:49:57;;;;;;;16.65;11.88;;;20.40;99.90;;;;;;5102593;27;20375;-63
2023/06/17 07:52:22;;;;;;;17.40;11.57;;;20.50;99.90;;;;;;5123188;27;20050;-63
2023/06/17 07:54:48;;;;;;;15.93;11.90;;;20.60;99.90;;;;;;5122643;27;20077;-64
2023/06/17 07:57:14;;;;;;;13.15;11.80;;;20.60;99.90;;;;;;5117218;27;20458;-64
2023/06/17 07:59:42;;;;;;;16.17;11.43;;;20.80;99.90;;;;;;5140266;27;20051;-65
2023/06/17 08:02:08;;;;;;;14.60;11.55;;;21.00;99.90;;;;;;5115646;27;20047;-66
2023/06/17 08:04:34;;;;;;;14.00;10.98;;;21.00;99.90;;;;;;5115028;27;20042;-66
2023/06/17 08:07:01;;;;;;;13.85;10.25;;;21.00;99.90;;;;;;5119013;27;20038;-64
2023/06/17 08:09:26;;;;;;;13.02;10.35;;;21.10;99.90;;;;;;5133903;27;20105;-63
2023/06/17 08:11:52;;;;;;;12.27;10.90;;;21.20;99.90;;;;;;5126838;27;20038;-65
2023/06/17 08:14:18;;;;;;;13.65;10.00;;;21.40;99.90;;;;;;5123039;27;20046;-65
2023/06/17 08:16:44;;;;;;;12.15;10.60;;;21.50;99.90;;;;;;5126404;27;20069;-64
2023/06/17 08:19:10;;;;;;;17.23;11.10;;;21.70;99.90;;;;;;5113306;27;20043;-64
2023/06/17 08:21:37;;;;;;;13.45;10.90;;;21.60;99.90;;;;;;5116146;27;20375;-65
2023/06/17 08:24:24;;;;;;;13.77;10.85;;;21.70;99.90;;;;;;5121603;27;20038;-66
2023/06/17 08:26:53;;;;;;;14.82;11.00;;;21.90;99.90;;;;;;5124773;27;20042;-63
2023/06/17 08:29:20;;;;;;;15.38;10.00;;;21.90;99.90;;;;;;5152672;27;20049;-66
2023/06/17 08:31:52;;;;;;;15.60;9.98;;;22.00;99.90;;;;;;5134073;27;20070;-63
2023/06/17 08:34:19;;;;;;;12.43;9.60;;;22.20;99.90;;;;;;5132684;27;20152;-65
2023/06/17 08:36:46;;;;;;;11.88;9.77;;;22.30;99.90;;;;;;5141264;27;20064;-65
2023/06/17 08:39:12;;;;;;;10.55;9.23;;;22.20;99.90;;;;;;5134353;27;20063;-64
2023/06/17 08:41:40;;;;;;;10.23;8.45;;;22.50;99.90;;;;;;5143332;27;20031;-62
2023/06/17 08:44:06;;;;;;;10.30;8.75;;;22.50;99.90;;;;;;5131886;27;20091;-63
2023/06/17 08:46:33;;;;;;;13.20;8.70;;;22.50;99.90;;;;;;5118489;27;20038;-63
2023/06/17 08:48:59;;;;;;;10.73;9.00;;;22.70;99.90;;;;;;5113626;27;20469;-65
2023/06/17 08:51:25;;;;;;;12.45;8.40;;;22.90;99.90;;;;;;5134433;27;20043;-67
2023/06/17 08:53:52;;;;;;;11.63;8.57;;;22.90;99.90;;;;;;5122557;27;20375;-64
2023/06/17 08:56:18;;;;;;;11.88;8.32;;;22.90;99.90;;;;;;5136056;27;20039;-62
2023/06/17 08:58:44;;;;;;;10.93;8.38;;;22.90;99.90;;;;;;5140910;27;20046;-63
2023/06/17 09:01:11;;;;;;;10.65;8.38;;;23.00;99.90;;;;;;5114796;27;20443;-64
2023/06/17 09:03:41;;;;;;;10.02;7.82;;;23.10;99.90;;;;;;5131471;27;20416;-64
2023/06/17 09:06:24;;;;;;;10.75;8.10;;;23.40;99.90;;;;;;5144841;27;20456;-64
2023/06/17 09:08:57;;;;;;;9.68;8.02;;;23.50;99.40;;;;;;5144229;27;20518;-65
2023/06/17 09:11:26;;;;;;;9.40;7.97;;;23.30;98.70;;;;;;5096372;27;20035;-66
2023/06/17 09:13:52;;;;;;;9.07;7.03;;;23.40;98.50;;;;;;5131881;27;20516;-64
2023/06/17 09:16:23;;;;;;;8.85;6.85;;;23.70;98.60;;;;;;5131453;27;20031;-62
2023/06/17 09:19:00;;;;;;;10.43;7.47;;;23.90;98.00;;;;;;5113439;27;20430;-64
2023/06/17 09:21:27;;;;;;;10.18;7.00;;;23.80;97.30;;;;;;5134696;27;20038;-63
2023/06/17 09:23:57;;;;;;;11.18;7.50;;;23.90;97.30;;;;;;5139401;27;20103;-63
2023/06/17 09:26:25;;;;;;;11.40;7.70;;;24.00;97.20;;;;;;5152463;27;20039;-64
2023/06/17 09:28:51;;;;;;;10.32;8.05;;;24.00;96.90;;;;;;5116792;27;20089;-64
2023/06/17 09:31:18;;;;;;;9.13;6.90;;;24.20;97.20;;;;;;5133711;27;20043;-64
2023/06/17 09:33:44;;;;;;;8.68;6.80;;;24.40;97.00;;;;;;5133248;27;20046;-62
2023/06/17 09:36:10;;;;;;;11.48;7.40;;;24.50;96.60;;;;;;5133716;27;20126;-65
2023/06/17 09:38:37;;;;;;;10.43;7.60;;;24.40;95.90;;;;;;5133457;27;20125;-64
2023/06/17 09:41:04;;;;;;;9.18;6.53;;;24.50;95.90;;;;;;5151423;27;20034;-65
2023/06/17 09:43:30;;;;;;;11.23;6.50;;;24.80;96.10;;;;;;5123753;27;20051;-65
2023/06/17 09:46:00;;;;;;;9.27;6.47;;;24.90;95.30;;;;;;5135887;27;20027;-64
2023/06/17 09:48:34;;;;;;;9.48;6.97;;;25.00;95.40;;;;;;5114119;27;20375;-65
2023/06/17 09:51:00;;;;;;;8.35;6.32;;;25.00;94.00;;;;;;5120864;27;20055;-65
2023/06/17 09:53:27;;;;;;;7.97;6.88;;;25.10;94.60;;;;;;5114380;27;20042;-65
2023/06/17 09:55:57;;;;;;;8.30;5.75;;;25.20;94.00;;;;;;5148340;27;20035;-66
2023/06/17 09:58:32;;;;;;;7.03;5.85;;;25.40;94.20;;;;;;5117438;27;20703;-66
2023/06/17 10:01:00;;;;;;;9.40;6.00;;;25.60;93.80;;;;;;5112163;27;20047;-64
2023/06/17 10:03:27;;;;;;;10.45;6.28;;;25.90;94.40;;;;;;5131008;27;20099;-65
2023/06/17 10:05:58;;;;;;;8.73;6.25;;;26.00;93.00;;;;;;5097240;27;20051;-66
2023/06/17 10:08:25;;;;;;;7.53;6.30;;;25.90;92.70;;;;;;5105184;27;20042;-66
2023/06/17 10:10:51;;;;;;;11.07;6.13;;;26.00;92.40;;;;;;5150947;27;20106;-65
2023/06/17 10:13:20;;;;;;;7.05;5.80;;;26.30;92.80;;;;;;5131483;27;20035;-66
2023/06/17 10:15:48;;;;;;;7.57;5.25;;;26.20;91.80;;;;;;5139787;27;20039;-64
2023/06/17 10:18:15;;;;;;;7.05;6.22;;;26.30;91.70;;;;;;5098500;27;20402;-63
2023/06/17 10:20:42;;;;;;;8.57;6.20;;;26.40;92.40;;;;;;5134997;27;20043;-64
2023/06/17 10:23:09;;;;;;;10.68;6.15;;;26.50;91.60;;;;;;5116007;27;20524;-62
2023/06/17 10:25:36;;;;;;;8.27;6.38;;;26.70;92.00;;;;;;5119154;27;20027;-65
2023/06/17 10:28:05;;;;;;;7.68;5.90;;;26.70;91.00;;;;;;5095743;27;20039;-68
2023/06/17 10:30:32;;;;;;;7.07;5.50;;;26.60;90.60;;;;;;5125583;27;20382;-65
2023/06/17 10:32:59;;;;;;;6.90;5.97;;;26.60;90.10;;;;;;5127395;27;20047;-64
2023/06/17 10:35:39;;;;;;;7.75;6.05;;;26.60;89.40;;;;;;5117546;27;20034;-63
2023/06/17 10:38:06;;;;;;;9.52;5.75;;;26.70;89.30;;;;;;5134771;27;20030;-62
2023/06/17 10:40:35;;;;;;;9.30;6.10;;;26.90;89.40;;;;;;5146540;27;20409;-63
2023/06/17 10:43:01;;;;;;;6.68;5.50;;;27.00;89.10;;;;;;5130614;27;20046;-65
2023/06/17 10:45:56;;;;;;;6.50;5.38;;;27.00;88.80;;;;;;5132914;27;20035;-63
2023/06/17 10:48:28;;;;;;;7.47;5.43;;;27.20;87.00;;;;;;5114585;27;20038;-65
2023/06/17 10:51:03;;;;;;;11.48;5.82;;;27.30;89.10;;;;;;5116440;27;22133;-65
2023/06/17 10:53:30;;;;;;;7.28;5.72;;;27.70;88.10;;;;;;5121331;27;20053;-63
2023/06/17 10:55:58;;;;;;;8.07;5.90;;;27.60;88.10;;;;;;5147111;27;20046;-67
2023/06/17 10:58:31;;;;;;;8.30;5.60;;;27.80;87.60;;;;;;5125974;27;20058;-66
2023/06/17 11:01:08;;;;;;;8.45;5.75;;;27.60;84.50;;;;;;5137469;27;20489;-64
2023/06/17 11:03:34;;;;;;;7.28;5.45;;;27.50;83.50;;;;;;5127182;27;20117;-66
2023/06/17 11:06:07;;;;;;;10.75;5.72;;;27.40;83.60;;;;;;5142912;27;20418;-68
2023/06/17 11:08:35;;;;;;;6.40;5.40;;;27.40;82.90;;;;;;5146842;27;20556;-65
2023/06/17 11:11:14;;;;;;;6.57;4.95;;;27.30;82.30;;;;;;5120214;27;20497;-65
2023/06/17 11:13:42;;;;;;;5.85;4.95;;;27.50;82.60;;;;;;5129385;27;20051;-64
2023/06/17 11:16:09;;;;;;;7.15;5.40;;;27.50;82.50;;;;;;5132161;27;20378;-65
2023/06/17 11:18:42;;;;;;;8.77;5.25;;;27.80;82.50;;;;;;5122884;27;20046;-63
2023/06/17 11:21:08;;;;;;;7.55;5.95;;;27.90;80.70;;;;;;5119661;27;20066;-68
2023/06/17 11:23:38;;;;;;;6.35;5.53;;;27.70;79.50;;;;;;5115345;27;20035;-65
2023/06/17 11:26:05;;;;;;;7.93;5.53;;;27.70;80.30;;;;;;5149373;27;20035;-64
2023/06/17 11:28:33;;;;;;;5.75;5.03;;;27.70;81.00;;;;;;5142509;27;20424;-65
2023/06/17 11:31:00;;;;;;;6.78;5.38;;;27.80;81.00;;;;;;5150063;27;20066;-67
2023/06/17 11:33:28;;;;;;;9.25;5.88;;;27.90;81.90;;;;;;5131751;27;20547;-66
2023/06/17 11:35:54;;;;;;;7.43;5.45;;;27.80;80.40;;;;;;5133665;27;20051;-66
2023/06/17 11:38:21;;;;;;;9.05;5.25;;;27.70;80.60;;;;;;5129618;27;20046;-64
2023/06/17 11:40:53;;;;;;;5.25;4.75;;;27.60;79.30;;;;;;5152434;27;20035;-64
2023/06/17 11:43:24;;;;;;;7.45;4.40;;;27.70;77.70;;;;;;5135925;27;20064;-62
2023/06/17 11:45:50;;;;;;;6.43;4.35;;;27.80;78.50;;;;;;5122841;27;20031;-65
2023/06/17 11:48:17;;;;;;;6.60;4.55;;;27.70;75.90;;;;;;5125104;27;20043;-65
2023/06/17 11:50:43;;;;;;;6.28;4.45;;;27.50;76.80;;;;;;5122814;27;20121;-67
2023/06/17 11:53:08;;;;;;;6.47;4.43;;;27.50;74.70;;;;;;5139293;27;20603;-66
2023/06/17 11:55:35;;;;;;;6.95;4.93;;;27.40;75.20;;;;;;5127892;27;20058;-67
2023/06/17 11:58:04;;;;;;;7.88;4.40;;;27.50;76.20;;;;;;5152398;27;20044;-66
2023/06/17 12:00:30;;;;;;;5.82;4.80;;;27.70;77.20;;;;;;5149919;27;20512;-68
2023/06/17 12:02:57;;;;;;;8.43;4.80;;;27.70;76.70;;;;;;5116451;27;20047;-68
2023/06/17 12:05:31;;;;;;;7.05;4.70;;;27.40;75.90;;;;;;5140475;27;20161;-63
2023/06/17 12:08:01;;;;;;;5.90;4.97;;;27.10;76.20;;;;;;5115614;27;20165;-65
2023/06/17 12:10:26;;;;;;;7.90;4.88;;;27.10;76.30;;;;;;5113905;27;20114;-67
2023/06/17 12:12:56;;;;;;;6.40;4.82;;;27.20;76.80;;;;;;5135833;27;20465;-67
2023/06/17 12:15:27;;;;;;;7.13;4.25;;;27.00;76.70;;;;;;5124397;27;20031;-63
2023/06/17 12:17:53;;;;;;;8.02;4.40;;;27.20;77.80;;;;;;5133247;27;20093;-65
2023/06/17 12:20:20;;;;;;;8.05;4.93;;;27.20;77.40;;;;;;5144107;27;20030;-64
2023/06/17 12:22:48;;;;;;;7.00;5.15;;;27.10;77.30;;;;;;5122646;27;20043;-66
2023/06/17 12:25:14;;;;;;;9.68;4.85;;;27.00;76.90;;;;;;5121580;27;20054;-64
2023/06/17 12:27:41;;;;;;;6.68;4.80;;;26.90;77.90;;;;;;5120620;27;20040;-63
2023/06/17 12:30:08;;;;;;;7.32;4.43;;;26.90;77.60;;;;;;5120653;27;20043;-63
2023/06/17 12:32:34;;;;;;;8.30;4.70;;;26.90;77.60;;;;;;5124927;27;20453;-67
2023/06/17 12:35:00;;;;;;;8.63;4.60;;;26.90;78.00;;;;;;5120715;27;20084;-63